Terminal Aerodrome Forecast
Issued by NWS Twin Cities, MN

Home | Current Version | Previous Version | Text Only | Print | Product List | Glossary On
Versions: 1 2 3 4 5 6 7 8 9 10 11 12 13 14 15 16 17 18 19 20 21
000
FTUS43 KMPX 292343
TAFEAU
TAF
KEAU 292343Z 3000/3024 34007KT P6SM -RA BKN015 OVC030
     FM300200 35008KT 5SM -RA OVC015
     FM300800 36012G20KT P6SM BKN020 BKN100
     FM301400 01012G20KT P6SM SCT025 SCT100
     FM301700 02010G17KT P6SM SCT030 SCT250=

USA.gov is the U.S. government's official web portal to all federal, state and local government web resources and services.